sensor_id;sensor_type;location;lat;lon;timestamp;P1;durP1;ratioP1;P2;durP2;ratioP2
25569;SDS011;17955;45.542;9.238;2023-04-03T00:01:50;10.07;;;6.25;;
25569;SDS011;17955;45.542;9.238;2023-04-03T00:04:17;15.68;;;7.25;;
25569;SDS011;17955;45.542;9.238;2023-04-03T00:06:44;11.70;;;6.75;;
25569;SDS011;17955;45.542;9.238;2023-04-03T00:09:12;15.18;;;7.88;;
25569;SDS011;17955;45.542;9.238;2023-04-03T00:11:39;13.40;;;7.30;;
25569;SDS011;17955;45.542;9.238;2023-04-03T00:14:08;11.45;;;6.80;;
25569;SDS011;17955;45.542;9.238;2023-04-03T00:16:35;12.23;;;7.20;;
25569;SDS011;17955;45.542;9.238;2023-04-03T00:19:02;15.63;;;7.30;;
25569;SDS011;17955;45.542;9.238;2023-04-03T00:21:30;15.35;;;6.97;;
25569;SDS011;17955;45.542;9.238;2023-04-03T00:23:57;12.98;;;6.75;;
25569;SDS011;17955;45.542;9.238;2023-04-03T00:26:25;13.73;;;6.28;;
25569;SDS011;17955;45.542;9.238;2023-04-03T00:28:52;12.27;;;6.45;;
25569;SDS011;17955;45.542;9.238;2023-04-03T00:31:21;12.65;;;6.40;;
25569;SDS011;17955;45.542;9.238;2023-04-03T00:33:48;11.75;;;7.10;;
25569;SDS011;17955;45.542;9.238;2023-04-03T00:36:15;11.20;;;6.32;;
25569;SDS011;17955;45.542;9.238;2023-04-03T00:38:42;10.55;;;6.80;;
25569;SDS011;17955;45.542;9.238;2023-04-03T00:41:10;11.98;;;6.55;;
25569;SDS011;17955;45.542;9.238;2023-04-03T00:43:37;10.20;;;5.97;;
25569;SDS011;17955;45.542;9.238;2023-04-03T00:46:04;11.52;;;6.57;;
25569;SDS011;17955;45.542;9.238;2023-04-03T00:48:34;11.32;;;6.22;;
25569;SDS011;17955;45.542;9.238;2023-04-03T00:51:03;14.70;;;6.30;;
25569;SDS011;17955;45.542;9.238;2023-04-03T00:53:32;10.15;;;6.05;;
25569;SDS011;17955;45.542;9.238;2023-04-03T00:56:00;12.13;;;6.28;;
25569;SDS011;17955;45.542;9.238;2023-04-03T00:58:28;12.10;;;6.03;;
25569;SDS011;17955;45.542;9.238;2023-04-03T01:00:59;12.48;;;5.90;;
25569;SDS011;17955;45.542;9.238;2023-04-03T01:03:29;9.25;;;5.65;;
25569;SDS011;17955;45.542;9.238;2023-04-03T01:06:00;12.45;;;5.63;;
25569;SDS011;17955;45.542;9.238;2023-04-03T01:08:27;10.65;;;5.47;;
25569;SDS011;17955;45.542;9.238;2023-04-03T01:10:55;13.80;;;5.57;;
25569;SDS011;17955;45.542;9.238;2023-04-03T01:13:25;14.50;;;5.45;;
25569;SDS011;17955;45.542;9.238;2023-04-03T01:15:52;14.10;;;5.57;;
25569;SDS011;17955;45.542;9.238;2023-04-03T01:18:20;9.63;;;6.00;;
25569;SDS011;17955;45.542;9.238;2023-04-03T01:23:39;13.13;;;5.40;;
25569;SDS011;17955;45.542;9.238;2023-04-03T01:26:08;13.05;;;5.13;;
25569;SDS011;17955;45.542;9.238;2023-04-03T01:28:36;8.32;;;5.00;;
25569;SDS011;17955;45.542;9.238;2023-04-03T01:31:06;12.68;;;5.45;;
25569;SDS011;17955;45.542;9.238;2023-04-03T01:33:37;9.48;;;4.93;;
25569;SDS011;17955;45.542;9.238;2023-04-03T01:36:05;11.10;;;5.70;;
25569;SDS011;17955;45.542;9.238;2023-04-03T01:38:32;8.93;;;5.35;;
25569;SDS011;17955;45.542;9.238;2023-04-03T01:41:00;8.45;;;5.15;;
25569;SDS011;17955;45.542;9.238;2023-04-03T01:43:28;11.63;;;4.97;;
25569;SDS011;17955;45.542;9.238;2023-04-03T01:45:55;8.57;;;5.15;;
25569;SDS011;17955;45.542;9.238;2023-04-03T01:48:22;8.63;;;5.28;;
25569;SDS011;17955;45.542;9.238;2023-04-03T01:50:51;7.57;;;4.88;;
25569;SDS011;17955;45.542;9.238;2023-04-03T01:53:18;10.95;;;5.72;;
25569;SDS011;17955;45.542;9.238;2023-04-03T01:55:46;10.23;;;5.55;;
25569;SDS011;17955;45.542;9.238;2023-04-03T01:58:13;9.77;;;5.53;;
25569;SDS011;17955;45.542;9.238;2023-04-03T02:00:40;13.43;;;5.30;;
25569;SDS011;17955;45.542;9.238;2023-04-03T02:03:07;8.55;;;5.30;;
25569;SDS011;17955;45.542;9.238;2023-04-03T02:05:35;11.65;;;5.43;;
25569;SDS011;17955;45.542;9.238;2023-04-03T02:08:03;10.05;;;4.95;;
25569;SDS011;17955;45.542;9.238;2023-04-03T02:10:31;10.90;;;5.75;;
25569;SDS011;17955;45.542;9.238;2023-04-03T02:12:58;9.85;;;5.55;;
25569;SDS011;17955;45.542;9.238;2023-04-03T02:15:25;10.55;;;5.20;;
25569;SDS011;17955;45.542;9.238;2023-04-03T02:17:53;9.35;;;5.40;;
25569;SDS011;17955;45.542;9.238;2023-04-03T02:20:20;8.15;;;5.28;;
25569;SDS011;17955;45.542;9.238;2023-04-03T02:22:48;10.02;;;6.03;;
25569;SDS011;17955;45.542;9.238;2023-04-03T02:25:17;10.02;;;6.30;;
25569;SDS011;17955;45.542;9.238;2023-04-03T02:27:44;9.50;;;6.32;;
25569;SDS011;17955;45.542;9.238;2023-04-03T02:30:11;10.95;;;6.65;;
25569;SDS011;17955;45.542;9.238;2023-04-03T02:32:40;11.93;;;7.03;;
25569;SDS011;17955;45.542;9.238;2023-04-03T02:35:07;11.63;;;6.35;;
25569;SDS011;17955;45.542;9.238;2023-04-03T02:37:35;11.85;;;6.72;;
25569;SDS011;17955;45.542;9.238;2023-04-03T02:40:03;11.25;;;6.70;;
25569;SDS011;17955;45.542;9.238;2023-04-03T02:42:32;11.90;;;6.70;;
25569;SDS011;17955;45.542;9.238;2023-04-03T02:44:59;11.00;;;6.43;;
25569;SDS011;17955;45.542;9.238;2023-04-03T02:50:13;10.93;;;6.70;;
25569;SDS011;17955;45.542;9.238;2023-04-03T02:52:40;10.35;;;6.28;;
25569;SDS011;17955;45.542;9.238;2023-04-03T02:55:08;10.43;;;6.55;;
25569;SDS011;17955;45.542;9.238;2023-04-03T02:57:36;11.68;;;6.28;;
25569;SDS011;17955;45.542;9.238;2023-04-03T03:00:04;8.75;;;5.53;;
25569;SDS011;17955;45.542;9.238;2023-04-03T03:02:32;12.93;;;6.47;;
25569;SDS011;17955;45.542;9.238;2023-04-03T03:04:59;13.05;;;6.28;;
25569;SDS011;17955;45.542;9.238;2023-04-03T03:07:26;11.23;;;6.43;;
25569;SDS011;17955;45.542;9.238;2023-04-03T03:09:54;9.93;;;5.57;;
25569;SDS011;17955;45.542;9.238;2023-04-03T03:12:21;9.48;;;6.35;;
25569;SDS011;17955;45.542;9.238;2023-04-03T03:14:51;11.43;;;6.70;;
25569;SDS011;17955;45.542;9.238;2023-04-03T03:17:18;12.23;;;6.43;;
25569;SDS011;17955;45.542;9.238;2023-04-03T03:19:45;12.02;;;6.93;;
25569;SDS011;17955;45.542;9.238;2023-04-03T03:22:12;13.05;;;6.40;;
25569;SDS011;17955;45.542;9.238;2023-04-03T03:24:40;10.68;;;6.32;;
25569;SDS011;17955;45.542;9.238;2023-04-03T03:27:08;13.75;;;6.82;;
25569;SDS011;17955;45.542;9.238;2023-04-03T03:29:35;9.25;;;5.70;;
25569;SDS011;17955;45.542;9.238;2023-04-03T03:32:10;9.60;;;5.72;;
25569;SDS011;17955;45.542;9.238;2023-04-03T03:34:37;12.25;;;5.93;;
25569;SDS011;17955;45.542;9.238;2023-04-03T03:37:04;9.15;;;5.65;;
25569;SDS011;17955;45.542;9.238;2023-04-03T03:39:32;9.82;;;5.97;;
25569;SDS011;17955;45.542;9.238;2023-04-03T03:41:59;9.00;;;5.40;;
25569;SDS011;17955;45.542;9.238;2023-04-03T03:44:27;11.27;;;6.03;;
25569;SDS011;17955;45.542;9.238;2023-04-03T03:46:54;11.73;;;6.30;;
25569;SDS011;17955;45.542;9.238;2023-04-03T03:49:23;10.43;;;6.65;;
25569;SDS011;17955;45.542;9.238;2023-04-03T03:51:51;12.48;;;6.32;;
25569;SDS011;17955;45.542;9.238;2023-04-03T03:54:18;10.20;;;6.30;;
25569;SDS011;17955;45.542;9.238;2023-04-03T03:56:46;11.43;;;6.15;;
25569;SDS011;17955;45.542;9.238;2023-04-03T03:59:13;10.80;;;6.00;;
25569;SDS011;17955;45.542;9.238;2023-04-03T04:01:41;10.02;;;5.50;;
25569;SDS011;17955;45.542;9.238;2023-04-03T04:04:09;9.52;;;5.72;;
25569;SDS011;17955;45.542;9.238;2023-04-03T04:06:37;10.40;;;6.03;;
25569;SDS011;17955;45.542;9.238;2023-04-03T04:09:08;10.77;;;6.07;;
25569;SDS011;17955;45.542;9.238;2023-04-03T04:11:35;12.45;;;6.20;;
25569;SDS011;17955;45.542;9.238;2023-04-03T04:14:05;12.07;;;5.85;;
25569;SDS011;17955;45.542;9.238;2023-04-03T04:16:33;9.80;;;6.35;;
25569;SDS011;17955;45.542;9.238;2023-04-03T04:19:06;10.57;;;5.93;;
25569;SDS011;17955;45.542;9.238;2023-04-03T04:21:33;12.05;;;6.93;;
25569;SDS011;17955;45.542;9.238;2023-04-03T04:24:02;11.95;;;6.63;;
25569;SDS011;17955;45.542;9.238;2023-04-03T04:26:30;10.77;;;6.47;;
25569;SDS011;17955;45.542;9.238;2023-04-03T04:28:57;12.40;;;6.55;;
25569;SDS011;17955;45.542;9.238;2023-04-03T04:31:25;10.82;;;6.63;;
25569;SDS011;17955;45.542;9.238;2023-04-03T04:33:52;12.07;;;6.88;;
25569;SDS011;17955;45.542;9.238;2023-04-03T04:36:20;10.60;;;6.72;;
25569;SDS011;17955;45.542;9.238;2023-04-03T04:38:48;14.00;;;6.70;;
25569;SDS011;17955;45.542;9.238;2023-04-03T04:41:20;14.15;;;6.80;;
25569;SDS011;17955;45.542;9.238;2023-04-03T04:43:49;13.73;;;6.88;;
25569;SDS011;17955;45.542;9.238;2023-04-03T04:46:16;20.92;;;8.30;;
25569;SDS011;17955;45.542;9.238;2023-04-03T04:48:48;22.92;;;8.68;;
25569;SDS011;17955;45.542;9.238;2023-04-03T04:51:18;15.43;;;7.65;;
25569;SDS011;17955;45.542;9.238;2023-04-03T04:53:45;17.02;;;8.02;;
25569;SDS011;17955;45.542;9.238;2023-04-03T04:56:15;11.85;;;7.38;;
25569;SDS011;17955;45.542;9.238;2023-04-03T04:58:44;13.48;;;7.43;;
25569;SDS011;17955;45.542;9.238;2023-04-03T05:01:11;17.27;;;7.82;;
25569;SDS011;17955;45.542;9.238;2023-04-03T05:06:16;16.60;;;7.68;;
25569;SDS011;17955;45.542;9.238;2023-04-03T05:08:43;16.30;;;7.82;;
25569;SDS011;17955;45.542;9.238;2023-04-03T05:11:10;12.23;;;7.05;;
25569;SDS011;17955;45.542;9.238;2023-04-03T05:13:39;15.20;;;7.57;;
25569;SDS011;17955;45.542;9.238;2023-04-03T05:16:08;12.25;;;6.63;;
25569;SDS011;17955;45.542;9.238;2023-04-03T05:18:35;10.20;;;6.53;;
25569;SDS011;17955;45.542;9.238;2023-04-03T05:21:08;10.85;;;7.15;;
25569;SDS011;17955;45.542;9.238;2023-04-03T05:23:35;13.73;;;6.10;;
25569;SDS011;17955;45.542;9.238;2023-04-03T05:26:03;14.93;;;6.68;;
25569;SDS011;17955;45.542;9.238;2023-04-03T05:28:31;11.95;;;6.13;;
25569;SDS011;17955;45.542;9.238;2023-04-03T05:30:59;10.10;;;6.55;;
25569;SDS011;17955;45.542;9.238;2023-04-03T05:33:33;12.35;;;6.20;;
25569;SDS011;17955;45.542;9.238;2023-04-03T05:36:03;11.57;;;5.90;;
25569;SDS011;17955;45.542;9.238;2023-04-03T05:38:33;9.88;;;5.90;;
25569;SDS011;17955;45.542;9.238;2023-04-03T05:41:00;9.23;;;6.65;;
25569;SDS011;17955;45.542;9.238;2023-04-03T05:43:27;12.63;;;6.18;;
25569;SDS011;17955;45.542;9.238;2023-04-03T05:45:55;13.02;;;6.57;;
25569;SDS011;17955;45.542;9.238;2023-04-03T05:48:24;14.13;;;6.45;;
25569;SDS011;17955;45.542;9.238;2023-04-03T05:50:53;14.85;;;7.47;;
25569;SDS011;17955;45.542;9.238;2023-04-03T05:53:24;16.10;;;6.63;;
25569;SDS011;17955;45.542;9.238;2023-04-03T05:55:53;17.38;;;7.55;;
25569;SDS011;17955;45.542;9.238;2023-04-03T05:58:21;11.43;;;5.82;;
25569;SDS011;17955;45.542;9.238;2023-04-03T06:00:50;14.90;;;6.55;;
25569;SDS011;17955;45.542;9.238;2023-04-03T06:03:20;11.98;;;6.30;;
25569;SDS011;17955;45.542;9.238;2023-04-03T06:05:48;11.45;;;6.65;;
25569;SDS011;17955;45.542;9.238;2023-04-03T06:08:16;14.05;;;6.97;;
25569;SDS011;17955;45.542;9.238;2023-04-03T06:10:44;15.27;;;7.00;;
25569;SDS011;17955;45.542;9.238;2023-04-03T06:13:11;13.00;;;7.57;;
25569;SDS011;17955;45.542;9.238;2023-04-03T06:15:39;16.33;;;7.47;;
25569;SDS011;17955;45.542;9.238;2023-04-03T06:18:08;17.70;;;7.25;;
25569;SDS011;17955;45.542;9.238;2023-04-03T06:20:35;15.20;;;7.45;;
25569;SDS011;17955;45.542;9.238;2023-04-03T06:23:02;10.02;;;6.82;;
25569;SDS011;17955;45.542;9.238;2023-04-03T06:25:31;15.35;;;7.30;;
25569;SDS011;17955;45.542;9.238;2023-04-03T06:27:58;15.85;;;6.47;;
25569;SDS011;17955;45.542;9.238;2023-04-03T06:30:26;12.85;;;6.10;;
25569;SDS011;17955;45.542;9.238;2023-04-03T06:32:53;10.25;;;4.68;;
25569;SDS011;17955;45.542;9.238;2023-04-03T06:35:20;9.90;;;5.00;;
25569;SDS011;17955;45.542;9.238;2023-04-03T06:37:48;13.32;;;4.43;;
25569;SDS011;17955;45.542;9.238;2023-04-03T06:40:18;8.93;;;3.95;;
25569;SDS011;17955;45.542;9.238;2023-04-03T06:42:48;6.85;;;3.83;;
25569;SDS011;17955;45.542;9.238;2023-04-03T06:45:17;6.60;;;4.07;;
25569;SDS011;17955;45.542;9.238;2023-04-03T06:47:45;8.07;;;4.10;;
25569;SDS011;17955;45.542;9.238;2023-04-03T06:50:12;9.50;;;4.05;;
25569;SDS011;17955;45.542;9.238;2023-04-03T06:52:40;7.95;;;4.05;;
25569;SDS011;17955;45.542;9.238;2023-04-03T06:55:08;9.32;;;4.20;;
25569;SDS011;17955;45.542;9.238;2023-04-03T06:57:35;7.50;;;4.15;;
25569;SDS011;17955;45.542;9.238;2023-04-03T07:00:05;8.00;;;4.40;;
25569;SDS011;17955;45.542;9.238;2023-04-03T07:02:34;8.30;;;4.13;;
25569;SDS011;17955;45.542;9.238;2023-04-03T07:05:01;8.90;;;4.30;;
25569;SDS011;17955;45.542;9.238;2023-04-03T07:07:29;8.77;;;4.30;;
25569;SDS011;17955;45.542;9.238;2023-04-03T07:09:56;9.60;;;3.88;;
25569;SDS011;17955;45.542;9.238;2023-04-03T07:12:24;8.02;;;3.58;;
25569;SDS011;17955;45.542;9.238;2023-04-03T07:14:51;7.65;;;3.83;;
25569;SDS011;17955;45.542;9.238;2023-04-03T07:17:20;7.10;;;4.10;;
25569;SDS011;17955;45.542;9.238;2023-04-03T07:19:47;11.02;;;3.90;;
25569;SDS011;17955;45.542;9.238;2023-04-03T07:22:14;8.15;;;3.60;;
25569;SDS011;17955;45.542;9.238;2023-04-03T07:24:41;6.90;;;3.90;;
25569;SDS011;17955;45.542;9.238;2023-04-03T07:27:09;7.90;;;3.90;;
25569;SDS011;17955;45.542;9.238;2023-04-03T07:29:38;7.00;;;3.42;;
25569;SDS011;17955;45.542;9.238;2023-04-03T07:32:05;9.65;;;3.92;;
25569;SDS011;17955;45.542;9.238;2023-04-03T07:34:34;7.05;;;3.55;;
25569;SDS011;17955;45.542;9.238;2023-04-03T07:37:01;8.10;;;4.00;;
25569;SDS011;17955;45.542;9.238;2023-04-03T07:39:29;6.30;;;3.38;;
25569;SDS011;17955;45.542;9.238;2023-04-03T07:41:57;10.27;;;4.38;;
25569;SDS011;17955;45.542;9.238;2023-04-03T07:44:24;5.88;;;2.60;;
25569;SDS011;17955;45.542;9.238;2023-04-03T07:46:52;6.47;;;3.22;;
25569;SDS011;17955;45.542;9.238;2023-04-03T07:49:20;9.07;;;3.40;;
25569;SDS011;17955;45.542;9.238;2023-04-03T07:51:50;9.38;;;4.03;;
25569;SDS011;17955;45.542;9.238;2023-04-03T07:54:18;8.15;;;3.15;;
25569;SDS011;17955;45.542;9.238;2023-04-03T07:56:45;11.70;;;3.97;;
25569;SDS011;17955;45.542;9.238;2023-04-03T07:59:13;8.38;;;3.53;;
25569;SDS011;17955;45.542;9.238;2023-04-03T08:01:40;5.07;;;3.22;;
25569;SDS011;17955;45.542;9.238;2023-04-03T08:04:07;6.63;;;3.15;;
25569;SDS011;17955;45.542;9.238;2023-04-03T08:06:35;4.60;;;2.72;;
25569;SDS011;17955;45.542;9.238;2023-04-03T08:09:04;3.78;;;2.40;;
25569;SDS011;17955;45.542;9.238;2023-04-03T08:11:31;8.48;;;3.85;;
25569;SDS011;17955;45.542;9.238;2023-04-03T08:13:58;6.85;;;3.00;;
25569;SDS011;17955;45.542;9.238;2023-04-03T08:16:27;5.53;;;3.10;;
25569;SDS011;17955;45.542;9.238;2023-04-03T08:18:55;6.30;;;3.22;;
25569;SDS011;17955;45.542;9.238;2023-04-03T08:21:22;4.35;;;2.80;;
25569;SDS011;17955;45.542;9.238;2023-04-03T08:23:51;5.43;;;3.25;;
25569;SDS011;17955;45.542;9.238;2023-04-03T08:26:20;5.15;;;2.75;;
25569;SDS011;17955;45.542;9.238;2023-04-03T08:28:48;5.45;;;2.78;;
25569;SDS011;17955;45.542;9.238;2023-04-03T08:31:16;6.45;;;3.15;;
25569;SDS011;17955;45.542;9.238;2023-04-03T08:33:44;8.27;;;3.15;;
25569;SDS011;17955;45.542;9.238;2023-04-03T08:36:17;4.40;;;2.15;;
25569;SDS011;17955;45.542;9.238;2023-04-03T08:38:45;6.10;;;3.03;;
25569;SDS011;17955;45.542;9.238;2023-04-03T08:41:15;5.22;;;3.17;;
25569;SDS011;17955;45.542;9.238;2023-04-03T08:43:48;6.35;;;2.25;;
25569;SDS011;17955;45.542;9.238;2023-04-03T08:46:20;12.23;;;3.80;;
25569;SDS011;17955;45.542;9.238;2023-04-03T08:48:51;5.53;;;3.08;;
25569;SDS011;17955;45.542;9.238;2023-04-03T08:51:19;9.88;;;3.70;;
25569;SDS011;17955;45.542;9.238;2023-04-03T08:53:49;5.00;;;3.25;;
25569;SDS011;17955;45.542;9.238;2023-04-03T08:56:19;7.95;;;3.15;;
25569;SDS011;17955;45.542;9.238;2023-04-03T08:58:50;5.70;;;3.30;;
25569;SDS011;17955;45.542;9.238;2023-04-03T09:01:19;4.75;;;3.15;;
25569;SDS011;17955;45.542;9.238;2023-04-03T09:03:46;5.47;;;2.97;;
25569;SDS011;17955;45.542;9.238;2023-04-03T09:06:14;4.28;;;2.75;;
25569;SDS011;17955;45.542;9.238;2023-04-03T09:08:43;5.88;;;3.53;;
25569;SDS011;17955;45.542;9.238;2023-04-03T09:11:13;7.38;;;3.47;;
25569;SDS011;17955;45.542;9.238;2023-04-03T09:13:44;6.97;;;3.40;;
25569;SDS011;17955;45.542;9.238;2023-04-03T09:16:20;6.28;;;3.05;;
25569;SDS011;17955;45.542;9.238;2023-04-03T09:18:53;10.98;;;3.58;;
25569;SDS011;17955;45.542;9.238;2023-04-03T09:21:22;6.30;;;3.50;;
25569;SDS011;17955;45.542;9.238;2023-04-03T09:23:50;6.10;;;3.80;;
25569;SDS011;17955;45.542;9.238;2023-04-03T09:26:19;7.38;;;3.22;;
25569;SDS011;17955;45.542;9.238;2023-04-03T09:28:48;13.07;;;3.83;;
25569;SDS011;17955;45.542;9.238;2023-04-03T09:31:21;5.50;;;2.95;;
25569;SDS011;17955;45.542;9.238;2023-04-03T09:33:49;9.38;;;3.42;;
25569;SDS011;17955;45.542;9.238;2023-04-03T09:39:02;5.80;;;3.05;;
25569;SDS011;17955;45.542;9.238;2023-04-03T09:41:30;7.05;;;2.80;;
25569;SDS011;17955;45.542;9.238;2023-04-03T09:43:58;7.53;;;3.08;;
25569;SDS011;17955;45.542;9.238;2023-04-03T09:46:30;5.50;;;3.10;;
25569;SDS011;17955;45.542;9.238;2023-04-03T09:48:58;7.18;;;2.95;;
25569;SDS011;17955;45.542;9.238;2023-04-03T09:51:26;8.77;;;2.83;;
25569;SDS011;17955;45.542;9.238;2023-04-03T09:53:54;4.63;;;2.53;;
25569;SDS011;17955;45.542;9.238;2023-04-03T09:56:24;6.47;;;2.38;;
25569;SDS011;17955;45.542;9.238;2023-04-03T09:58:52;11.18;;;2.85;;
25569;SDS011;17955;45.542;9.238;2023-04-03T10:01:35;4.55;;;2.47;;
25569;SDS011;17955;45.542;9.238;2023-04-03T10:04:07;3.92;;;2.60;;
25569;SDS011;17955;45.542;9.238;2023-04-03T10:06:36;4.65;;;3.03;;
25569;SDS011;17955;45.542;9.238;2023-04-03T10:09:06;5.40;;;2.65;;
25569;SDS011;17955;45.542;9.238;2023-04-03T10:11:44;3.83;;;2.08;;
25569;SDS011;17955;45.542;9.238;2023-04-03T10:14:23;5.60;;;3.20;;
25569;SDS011;17955;45.542;9.238;2023-04-03T10:16:56;9.65;;;3.67;;
25569;SDS011;17955;45.542;9.238;2023-04-03T10:21:55;5.05;;;2.90;;
25569;SDS011;17955;45.542;9.238;2023-04-03T10:24:25;3.25;;;1.58;;
25569;SDS011;17955;45.542;9.238;2023-04-03T10:26:56;5.88;;;2.72;;
25569;SDS011;17955;45.542;9.238;2023-04-03T10:29:27;5.60;;;3.05;;
25569;SDS011;17955;45.542;9.238;2023-04-03T10:32:01;7.35;;;3.10;;
25569;SDS011;17955;45.542;9.238;2023-04-03T10:34:31;4.25;;;2.70;;
25569;SDS011;17955;45.542;9.238;2023-04-03T10:37:01;6.00;;;2.90;;
25569;SDS011;17955;45.542;9.238;2023-04-03T10:39:33;6.72;;;3.15;;
25569;SDS011;17955;45.542;9.238;2023-04-03T10:42:03;7.65;;;2.72;;
25569;SDS011;17955;45.542;9.238;2023-04-03T10:44:35;6.65;;;2.63;;
25569;SDS011;17955;45.542;9.238;2023-04-03T10:47:07;4.00;;;2.72;;
25569;SDS011;17955;45.542;9.238;2023-04-03T10:49:41;4.78;;;2.50;;
25569;SDS011;17955;45.542;9.238;2023-04-03T10:52:14;10.63;;;3.47;;
25569;SDS011;17955;45.542;9.238;2023-04-03T10:54:43;11.85;;;3.70;;
25569;SDS011;17955;45.542;9.238;2023-04-03T10:57:13;4.15;;;2.33;;
25569;SDS011;17955;45.542;9.238;2023-04-03T10:59:41;3.85;;;2.30;;
25569;SDS011;17955;45.542;9.238;2023-04-03T11:02:13;6.00;;;2.65;;
25569;SDS011;17955;45.542;9.238;2023-04-03T11:04:44;6.72;;;2.90;;
25569;SDS011;17955;45.542;9.238;2023-04-03T11:07:14;4.45;;;2.55;;
25569;SDS011;17955;45.542;9.238;2023-04-03T11:09:44;3.60;;;2.20;;
25569;SDS011;17955;45.542;9.238;2023-04-03T11:12:14;3.90;;;2.60;;
25569;SDS011;17955;45.542;9.238;2023-04-03T11:14:42;4.63;;;2.60;;
25569;SDS011;17955;45.542;9.238;2023-04-03T11:17:21;6.63;;;2.45;;
25569;SDS011;17955;45.542;9.238;2023-04-03T11:19:52;5.97;;;2.90;;
25569;SDS011;17955;45.542;9.238;2023-04-03T11:22:25;3.95;;;2.30;;
25569;SDS011;17955;45.542;9.238;2023-04-03T11:24:56;4.40;;;1.90;;
25569;SDS011;17955;45.542;9.238;2023-04-03T11:27:25;6.93;;;2.08;;
25569;SDS011;17955;45.542;9.238;2023-04-03T11:29:56;3.25;;;1.85;;
25569;SDS011;17955;45.542;9.238;2023-04-03T11:32:32;4.30;;;2.35;;
25569;SDS011;17955;45.542;9.238;2023-04-03T11:35:02;6.10;;;2.42;;
25569;SDS011;17955;45.542;9.238;2023-04-03T11:37:33;6.07;;;2.33;;
25569;SDS011;17955;45.542;9.238;2023-04-03T11:40:02;3.78;;;2.35;;
25569;SDS011;17955;45.542;9.238;2023-04-03T11:42:32;4.80;;;2.10;;
25569;SDS011;17955;45.542;9.238;2023-04-03T11:45:17;4.53;;;2.90;;
25569;SDS011;17955;45.542;9.238;2023-04-03T11:47:52;6.05;;;2.53;;
25569;SDS011;17955;45.542;9.238;2023-04-03T11:50:39;5.00;;;2.38;;
25569;SDS011;17955;45.542;9.238;2023-04-03T11:55:45;5.35;;;2.38;;
25569;SDS011;17955;45.542;9.238;2023-04-03T11:58:22;3.42;;;2.00;;
25569;SDS011;17955;45.542;9.238;2023-04-03T12:03:34;3.85;;;1.98;;
25569;SDS011;17955;45.542;9.238;2023-04-03T12:06:48;3.50;;;2.20;;
25569;SDS011;17955;45.542;9.238;2023-04-03T12:09:22;5.88;;;2.10;;
25569;SDS011;17955;45.542;9.238;2023-04-03T12:11:50;2.83;;;1.73;;
25569;SDS011;17955;45.542;9.238;2023-04-03T12:14:18;4.30;;;1.60;;
25569;SDS011;17955;45.542;9.238;2023-04-03T12:16:47;7.25;;;2.30;;
25569;SDS011;17955;45.542;9.238;2023-04-03T12:19:32;3.40;;;1.75;;
25569;SDS011;17955;45.542;9.238;2023-04-03T12:22:04;5.50;;;1.98;;
25569;SDS011;17955;45.542;9.238;2023-04-03T12:24:32;5.85;;;2.00;;
25569;SDS011;17955;45.542;9.238;2023-04-03T12:27:05;4.32;;;2.30;;
25569;SDS011;17955;45.542;9.238;2023-04-03T12:29:33;3.17;;;1.83;;
25569;SDS011;17955;45.542;9.238;2023-04-03T12:32:06;3.55;;;1.98;;
25569;SDS011;17955;45.542;9.238;2023-04-03T12:34:43;4.18;;;1.98;;
25569;SDS011;17955;45.542;9.238;2023-04-03T12:37:17;4.07;;;2.03;;
25569;SDS011;17955;45.542;9.238;2023-04-03T12:39:51;3.80;;;2.00;;
25569;SDS011;17955;45.542;9.238;2023-04-03T12:42:26;3.13;;;1.80;;
25569;SDS011;17955;45.542;9.238;2023-04-03T12:44:57;2.75;;;1.48;;
25569;SDS011;17955;45.542;9.238;2023-04-03T12:47:29;4.32;;;1.88;;
25569;SDS011;17955;45.542;9.238;2023-04-03T12:50:00;2.53;;;1.48;;
25569;SDS011;17955;45.542;9.238;2023-04-03T12:52:31;4.47;;;1.25;;
25569;SDS011;17955;45.542;9.238;2023-04-03T12:55:00;3.30;;;1.77;;
25569;SDS011;17955;45.542;9.238;2023-04-03T12:57:29;4.25;;;1.95;;
25569;SDS011;17955;45.542;9.238;2023-04-03T12:59:58;3.10;;;1.60;;
25569;SDS011;17955;45.542;9.238;2023-04-03T13:02:26;3.20;;;1.83;;
25569;SDS011;17955;45.542;9.238;2023-04-03T13:04:54;6.78;;;1.67;;
25569;SDS011;17955;45.542;9.238;2023-04-03T13:07:25;3.92;;;1.95;;
25569;SDS011;17955;45.542;9.238;2023-04-03T13:09:57;2.50;;;1.50;;
25569;SDS011;17955;45.542;9.238;2023-04-03T13:12:25;2.10;;;1.17;;
25569;SDS011;17955;45.542;9.238;2023-04-03T13:14:53;3.53;;;1.52;;
25569;SDS011;17955;45.542;9.238;2023-04-03T13:17:21;3.70;;;1.80;;
25569;SDS011;17955;45.542;9.238;2023-04-03T13:19:49;3.08;;;1.70;;
25569;SDS011;17955;45.542;9.238;2023-04-03T13:22:21;5.18;;;1.92;;
25569;SDS011;17955;45.542;9.238;2023-04-03T13:24:53;5.95;;;2.78;;
25569;SDS011;17955;45.542;9.238;2023-04-03T13:27:21;2.58;;;1.48;;
25569;SDS011;17955;45.542;9.238;2023-04-03T13:29:49;3.22;;;1.70;;
25569;SDS011;17955;45.542;9.238;2023-04-03T13:32:18;1.90;;;1.15;;
25569;SDS011;17955;45.542;9.238;2023-04-03T13:34:46;3.92;;;1.80;;
25569;SDS011;17955;45.542;9.238;2023-04-03T13:37:20;2.97;;;1.55;;
25569;SDS011;17955;45.542;9.238;2023-04-03T13:39:58;7.03;;;1.77;;
25569;SDS011;17955;45.542;9.238;2023-04-03T13:42:26;7.90;;;2.00;;
25569;SDS011;17955;45.542;9.238;2023-04-03T13:47:41;2.80;;;1.50;;
25569;SDS011;17955;45.542;9.238;2023-04-03T13:50:16;3.28;;;1.50;;
25569;SDS011;17955;45.542;9.238;2023-04-03T13:52:46;3.97;;;1.67;;
25569;SDS011;17955;45.542;9.238;2023-04-03T13:55:20;3.72;;;1.67;;
25569;SDS011;17955;45.542;9.238;2023-04-03T13:57:48;5.45;;;1.98;;
25569;SDS011;17955;45.542;9.238;2023-04-03T14:00:20;2.53;;;1.33;;
25569;SDS011;17955;45.542;9.238;2023-04-03T14:02:47;3.33;;;1.48;;
25569;SDS011;17955;45.542;9.238;2023-04-03T14:05:15;3.72;;;1.83;;
25569;SDS011;17955;45.542;9.238;2023-04-03T14:07:46;7.90;;;1.50;;
25569;SDS011;17955;45.542;9.238;2023-04-03T14:10:13;5.25;;;1.80;;
25569;SDS011;17955;45.542;9.238;2023-04-03T14:12:42;2.05;;;1.15;;
25569;SDS011;17955;45.542;9.238;2023-04-03T14:15:15;2.35;;;1.48;;
25569;SDS011;17955;45.542;9.238;2023-04-03T14:17:43;5.20;;;1.73;;
25569;SDS011;17955;45.542;9.238;2023-04-03T14:20:13;8.35;;;2.10;;
25569;SDS011;17955;45.542;9.238;2023-04-03T14:22:41;3.92;;;1.73;;
25569;SDS011;17955;45.542;9.238;2023-04-03T14:25:08;6.25;;;1.88;;
25569;SDS011;17955;45.542;9.238;2023-04-03T14:27:37;4.57;;;2.10;;
25569;SDS011;17955;45.542;9.238;2023-04-03T14:30:08;4.32;;;1.63;;
25569;SDS011;17955;45.542;9.238;2023-04-03T14:32:36;2.50;;;1.60;;
25569;SDS011;17955;45.542;9.238;2023-04-03T14:35:03;3.47;;;1.60;;
25569;SDS011;17955;45.542;9.238;2023-04-03T14:37:31;8.82;;;1.60;;
25569;SDS011;17955;45.542;9.238;2023-04-03T14:39:59;5.18;;;1.67;;
25569;SDS011;17955;45.542;9.238;2023-04-03T14:42:29;3.30;;;1.60;;
25569;SDS011;17955;45.542;9.238;2023-04-03T14:44:57;4.25;;;1.70;;
25569;SDS011;17955;45.542;9.238;2023-04-03T14:47:27;4.30;;;1.27;;
25569;SDS011;17955;45.542;9.238;2023-04-03T14:49:56;2.15;;;1.33;;
25569;SDS011;17955;45.542;9.238;2023-04-03T14:52:24;5.65;;;1.58;;
25569;SDS011;17955;45.542;9.238;2023-04-03T14:54:51;2.28;;;1.10;;
25569;SDS011;17955;45.542;9.238;2023-04-03T14:57:19;2.35;;;1.30;;
25569;SDS011;17955;45.542;9.238;2023-04-03T14:59:49;3.15;;;1.52;;
25569;SDS011;17955;45.542;9.238;2023-04-03T15:02:26;2.90;;;1.45;;
25569;SDS011;17955;45.542;9.238;2023-04-03T15:04:54;2.45;;;1.65;;
25569;SDS011;17955;45.542;9.238;2023-04-03T15:07:21;7.15;;;1.75;;
25569;SDS011;17955;45.542;9.238;2023-04-03T15:09:49;6.55;;;1.55;;
25569;SDS011;17955;45.542;9.238;2023-04-03T15:12:17;4.28;;;1.80;;
25569;SDS011;17955;45.542;9.238;2023-04-03T15:14:44;8.95;;;2.13;;
25569;SDS011;17955;45.542;9.238;2023-04-03T15:17:13;10.55;;;1.90;;